createdAt,value
2018-07-14T00:01:27.375Z,68.58
2018-07-14T00:03:56.851Z,68.28
2018-07-14T00:20:37.051Z,69.41
2018-07-14T00:34:29.122Z,70.10
2018-07-14T00:39:49.276Z,71.12
2018-07-14T00:45:22.160Z,71.33
2018-07-14T00:56:19.409Z,70.15
2018-07-14T00:58:57.603Z,70.38
2018-07-14T01:09:58.097Z,71.43
2018-07-14T01:12:27.161Z,71.08
2018-07-14T01:14:56.970Z,71.53
2018-07-14T01:17:26.316Z,71.99
2018-07-14T01:22:47.530Z,72.06
2018-07-14T01:28:05.590Z,71.52
2018-07-14T01:30:35.354Z,71.89
2018-07-14T01:33:05.128Z,71.99
2018-07-14T01:35:35.691Z,71.99
2018-07-14T01:40:52.223Z,72.02
2018-07-14T01:43:21.747Z,72.29
2018-07-14T01:45:50.957Z,72.38
2018-07-14T01:48:21.463Z,72.50
2018-07-14T01:50:51.046Z,72.24
2018-07-14T01:53:20.701Z,72.46
2018-07-14T01:55:50.927Z,72.48
2018-07-14T01:58:21.565Z,72.38
2018-07-14T02:00:54.152Z,72.95
2018-07-14T02:03:25.199Z,72.00
2018-07-14T02:05:56.887Z,73.08
2018-07-14T02:08:27.250Z,73.49
2018-07-14T02:10:58.584Z,73.53
2018-07-14T02:16:23.824Z,73.92
2018-07-14T02:18:53.394Z,72.79
2018-07-14T02:21:23.312Z,73.98
2018-07-14T02:23:52.838Z,72.64
2018-07-14T02:26:22.858Z,73.37
2018-07-14T02:28:52.048Z,73.77
2018-07-14T02:31:21.997Z,73.95
2018-07-14T02:33:51.128Z,74.25
2018-07-14T02:36:22.677Z,73.40
2018-07-14T02:38:52.170Z,72.62
2018-07-14T02:41:22.195Z,73.72
2018-07-14T02:43:51.589Z,74.27
2018-07-14T02:46:21.625Z,74.41
2018-07-14T02:48:51.159Z,74.65
2018-07-14T02:51:23.825Z,75.06
2018-07-14T02:53:53.244Z,75.36
2018-07-14T02:56:23.061Z,75.29
2018-07-14T02:58:59.641Z,75.42
2018-07-14T03:01:29.090Z,75.56
2018-07-14T03:04:00.753Z,75.85
2018-07-14T03:06:30.291Z,76.02
2018-07-14T03:09:04.935Z,74.41
2018-07-14T03:11:34.800Z,75.17
2018-07-14T03:14:05.246Z,75.38
2018-07-14T03:16:35.253Z,75.92
2018-07-14T03:19:04.949Z,75.89
2018-07-14T03:21:34.899Z,76.41
2018-07-14T03:24:05.497Z,76.83
2018-07-14T03:26:35.887Z,76.78
2018-07-14T03:29:06.365Z,76.67
2018-07-14T03:31:37.465Z,74.86
2018-07-14T03:34:07.034Z,75.75
2018-07-14T03:36:54.510Z,76.08
2018-07-14T03:42:16.101Z,76.64
2018-07-14T03:44:46.698Z,76.61
2018-07-14T03:50:06.729Z,76.65
2018-07-14T03:52:37.505Z,76.88
2018-07-14T03:55:07.615Z,77.17
2018-07-14T04:00:28.134Z,77.20
2018-07-14T04:02:59.066Z,77.23
2018-07-14T04:05:28.635Z,75.60
2018-07-14T04:08:01.522Z,76.23
2018-07-14T04:10:31.610Z,76.51
2018-07-14T04:13:14.399Z,74.65
2018-07-14T04:15:44.433Z,75.76
2018-07-14T04:18:14.439Z,76.37
2018-07-14T04:20:44.370Z,76.57
2018-07-14T04:23:18.812Z,76.76
2018-07-14T04:25:49.971Z,76.78
2018-07-14T04:28:23.212Z,77.05
2018-07-14T04:30:52.555Z,77.05
2018-07-14T04:33:22.372Z,77.14
2018-07-14T04:35:54.789Z,77.64
2018-07-14T04:38:27.596Z,77.18
2018-07-14T04:40:58.510Z,74.81
2018-07-14T04:43:29.476Z,76.00
2018-07-14T04:46:00.304Z,76.55
2018-07-14T04:48:30.021Z,76.56
2018-07-14T04:51:01.862Z,76.60
2018-07-14T04:53:34.039Z,76.54
2018-07-14T04:56:09.134Z,76.39
2018-07-14T05:01:30.707Z,76.38
2018-07-14T05:04:00.546Z,76.05
2018-07-14T05:06:30.347Z,75.77
2018-07-14T05:09:01.923Z,76.06
2018-07-14T05:11:31.500Z,76.14
2018-07-14T05:16:51.214Z,76.08
2018-07-14T05:19:21.138Z,75.48
2018-07-14T05:21:52.569Z,75.44
2018-07-14T05:24:33.494Z,75.18
2018-07-14T05:27:04.199Z,74.84
2018-07-14T05:29:37.545Z,74.29
2018-07-14T05:32:10.441Z,74.24
2018-07-14T05:34:42.780Z,73.67
2018-07-14T05:37:12.661Z,73.48
2018-07-14T05:39:49.108Z,73.22
2018-07-14T05:42:22.386Z,72.82
2018-07-14T05:44:56.148Z,72.20
2018-07-14T05:50:15.780Z,71.87
2018-07-14T05:52:45.337Z,71.54
2018-07-14T05:55:32.564Z,71.49
2018-07-14T05:58:04.351Z,71.59
2018-07-14T06:00:37.769Z,71.29
2018-07-14T06:03:14.768Z,70.63
2018-07-14T06:05:49.510Z,70.19
2018-07-14T06:08:22.809Z,70.11
2018-07-14T06:10:52.854Z,70.12
2018-07-14T06:13:24.595Z,69.68
2018-07-14T06:15:53.577Z,69.10
2018-07-14T06:18:23.298Z,68.69
2018-07-14T06:20:52.236Z,68.58
2018-07-14T06:23:21.121Z,68.51
2018-07-14T06:25:49.872Z,68.49
2018-07-14T06:28:19.787Z,68.51
2018-07-14T06:30:48.973Z,68.09
2018-07-14T06:33:18.008Z,67.82
2018-07-14T06:35:47.067Z,63.02
2018-07-14T06:38:15.802Z,65.52
2018-07-14T06:40:44.981Z,65.95
2018-07-14T06:43:14.157Z,66.33
2018-07-14T06:45:42.824Z,66.35
2018-07-14T06:48:11.462Z,65.84
2018-07-14T06:50:40.138Z,65.54
2018-07-14T06:53:08.785Z,64.78
2018-07-14T06:55:37.454Z,64.34
2018-07-14T06:58:06.101Z,64.34
2018-07-14T07:00:36.376Z,64.64
2018-07-14T07:03:05.033Z,64.33
2018-07-14T07:05:34.727Z,63.71
2018-07-14T07:08:06.914Z,63.31
2018-07-14T07:10:35.588Z,62.92
2018-07-14T07:13:04.224Z,62.28
2018-07-14T07:15:32.900Z,61.77
2018-07-14T07:18:06.426Z,61.51
2018-07-14T07:20:35.653Z,61.27
2018-07-14T07:23:04.273Z,60.94
2018-07-14T07:25:32.965Z,56.19
2018-07-14T07:28:01.632Z,54.84
2018-07-14T07:30:30.250Z,57.91
2018-07-14T07:33:01.585Z,58.17
2018-07-14T07:35:30.207Z,58.04
2018-07-14T07:37:59.076Z,58.09
2018-07-14T07:40:27.700Z,58.01
2018-07-14T07:42:57.114Z,57.96
2018-07-14T07:45:26.818Z,57.38
2018-07-14T07:47:55.524Z,56.95
2018-07-14T07:50:24.166Z,56.98
2018-07-14T07:52:58.930Z,56.80
2018-07-14T07:55:27.548Z,56.71
2018-07-14T07:57:56.217Z,56.35
2018-07-14T08:00:24.835Z,56.21
2018-07-14T08:02:53.497Z,56.14
2018-07-14T08:05:22.159Z,56.37
2018-07-14T08:07:50.827Z,55.55
2018-07-14T08:10:21.398Z,54.98
2018-07-14T08:12:50.053Z,54.57
2018-07-14T08:15:18.706Z,50.08
2018-07-14T08:17:47.377Z,52.04
2018-07-14T08:20:16.003Z,52.60
2018-07-14T08:22:44.769Z,53.11
2018-07-14T08:25:13.412Z,52.77
2018-07-14T08:27:42.010Z,52.28
2018-07-14T08:30:18.165Z,52.27
2018-07-14T08:32:47.481Z,52.21
2018-07-14T08:35:16.112Z,51.98
2018-07-14T08:37:44.763Z,46.43
2018-07-14T08:40:13.519Z,49.68
2018-07-14T08:42:42.387Z,50.22
2018-07-14T08:45:11.166Z,50.23
2018-07-14T08:50:32.711Z,48.38
2018-07-14T08:53:04.393Z,45.45
2018-07-14T08:55:33.404Z,44.09
2018-07-14T08:58:02.153Z,46.91
2018-07-14T09:00:30.778Z,47.41
2018-07-14T09:02:59.618Z,47.64
2018-07-14T09:05:28.329Z,47.66
2018-07-14T09:07:57.855Z,43.10
2018-07-14T09:10:26.774Z,46.26
2018-07-14T09:12:55.518Z,46.70
2018-07-14T09:23:13.707Z,47.46
2018-07-14T09:25:42.684Z,47.16
2018-07-14T09:28:11.467Z,42.39
2018-07-14T09:30:40.695Z,45.20
2018-07-14T09:33:10.290Z,42.19
2018-07-14T09:35:39.379Z,44.90
2018-07-14T09:38:11.647Z,41.70
2018-07-14T09:40:40.576Z,43.75
2018-07-14T09:43:10.544Z,44.66
2018-07-14T09:45:40.922Z,44.59
2018-07-14T09:48:11.389Z,44.65
2018-07-14T09:50:40.507Z,44.39
2018-07-14T09:53:09.570Z,44.62
2018-07-14T09:55:38.630Z,44.13
2018-07-14T09:58:07.634Z,44.06
2018-07-14T10:00:36.732Z,43.83
2018-07-14T10:03:05.629Z,44.03
2018-07-14T10:05:34.289Z,43.51
2018-07-14T10:08:03.100Z,43.36
2018-07-14T10:10:31.779Z,42.84
2018-07-14T10:13:00.399Z,42.47
2018-07-14T10:15:29.067Z,42.30
2018-07-14T10:17:57.688Z,42.07
2018-07-14T10:20:26.353Z,41.49
2018-07-14T10:22:54.973Z,41.96
2018-07-14T10:25:23.753Z,41.59
2018-07-14T10:27:54.146Z,41.05
2018-07-14T10:30:22.840Z,40.85
2018-07-14T10:32:51.492Z,40.75
2018-07-14T10:35:20.145Z,36.54
2018-07-14T10:37:48.781Z,38.62
2018-07-14T10:40:17.503Z,38.44
2018-07-14T10:42:46.075Z,38.62
2018-07-14T10:45:14.723Z,38.67
2018-07-14T10:47:43.367Z,38.62
2018-07-14T10:50:14.363Z,38.64
2018-07-14T10:52:43.011Z,38.96
2018-07-14T10:55:19.218Z,38.69
2018-07-14T10:57:47.926Z,38.35
2018-07-14T11:00:16.619Z,34.01
2018-07-14T11:02:45.276Z,33.28
2018-07-14T11:05:13.939Z,33.11
2018-07-14T11:07:43.149Z,35.87
2018-07-14T11:10:11.806Z,36.14
2018-07-14T11:12:40.461Z,36.63
2018-07-14T11:15:09.120Z,36.21
2018-07-14T11:17:37.758Z,36.84
2018-07-14T11:20:06.395Z,36.53
2018-07-14T11:22:35.074Z,37.07
2018-07-14T11:25:03.687Z,36.21
2018-07-14T11:27:32.651Z,33.73
2018-07-14T11:30:06.227Z,32.66
2018-07-14T11:32:38.988Z,35.15
2018-07-14T11:35:27.534Z,35.49
2018-07-14T11:38:14.730Z,32.16
2018-07-14T11:40:44.438Z,34.93
2018-07-14T11:43:13.970Z,35.32
2018-07-14T11:45:48.927Z,32.60
2018-07-14T11:48:22.971Z,34.51
2018-07-14T11:50:55.528Z,35.14
2018-07-14T11:53:24.773Z,35.26
2018-07-14T11:55:53.915Z,31.88
2018-07-14T11:58:22.795Z,34.15
2018-07-14T12:00:56.345Z,35.10
2018-07-14T12:03:27.410Z,35.27
2018-07-14T12:05:56.074Z,35.54
2018-07-14T12:08:25.876Z,34.97
2018-07-14T12:10:54.508Z,35.68
2018-07-14T12:13:23.536Z,35.09
2018-07-14T12:15:52.149Z,32.34
2018-07-14T12:18:20.822Z,33.74
2018-07-14T12:20:49.480Z,34.19
2018-07-14T12:23:18.484Z,34.20
2018-07-14T12:25:47.105Z,34.48
2018-07-14T12:28:15.756Z,34.08
2018-07-14T12:30:44.455Z,34.46
2018-07-14T12:33:13.851Z,34.18
2018-07-14T12:35:43.099Z,34.57
2018-07-14T12:38:11.756Z,34.20
2018-07-14T12:40:40.726Z,33.94
2018-07-14T12:43:09.683Z,34.52
2018-07-14T12:45:38.379Z,33.97
2018-07-14T12:48:07.090Z,34.26
2018-07-14T12:50:35.702Z,34.09
2018-07-14T12:53:04.374Z,33.74
2018-07-14T12:55:32.990Z,33.29
2018-07-14T12:58:09.261Z,33.24
2018-07-14T13:00:37.918Z,33.53
2018-07-14T13:03:06.571Z,30.03
2018-07-14T13:05:35.205Z,29.35
2018-07-14T13:08:03.858Z,32.00
2018-07-14T13:10:32.503Z,31.98
2018-07-14T13:13:01.176Z,32.03
2018-07-14T13:15:29.830Z,32.93
2018-07-14T13:17:58.505Z,33.06
2018-07-14T13:20:27.126Z,32.60
2018-07-14T13:23:03.299Z,32.67
2018-07-14T13:25:31.949Z,32.28
2018-07-14T13:28:00.596Z,29.30
2018-07-14T13:30:29.237Z,31.43
2018-07-14T13:32:57.872Z,31.40
2018-07-14T13:35:26.556Z,32.08
2018-07-14T13:37:55.203Z,32.93
2018-07-14T13:40:23.882Z,32.04
2018-07-14T13:42:52.518Z,32.58
2018-07-14T13:45:21.200Z,32.89
2018-07-14T13:47:49.833Z,32.09
2018-07-14T13:50:18.496Z,32.22
2018-07-14T13:52:49.588Z,32.16
2018-07-14T13:55:18.241Z,31.89
2018-07-14T14:00:34.461Z,30.38
2018-07-14T14:03:03.097Z,28.14
2018-07-14T14:05:31.765Z,30.28
2018-07-14T14:08:00.391Z,28.80
2018-07-14T14:10:29.039Z,30.36
2018-07-14T14:12:57.677Z,30.55
2018-07-14T14:15:26.346Z,30.79
2018-07-14T14:17:54.962Z,28.19
2018-07-14T14:20:23.640Z,29.85
2018-07-14T14:22:58.071Z,28.10
2018-07-14T14:25:26.741Z,29.07
2018-07-14T14:27:55.377Z,30.43
2018-07-14T14:30:24.033Z,30.53
2018-07-14T14:32:52.712Z,30.65
2018-07-14T14:35:23.466Z,30.70
2018-07-14T14:37:50.030Z,30.79
2018-07-14T14:40:18.695Z,31.08
2018-07-14T14:42:47.407Z,31.34
2018-07-14T14:45:16.052Z,31.36
2018-07-14T14:47:44.719Z,31.29
2018-07-14T14:50:13.658Z,30.84
2018-07-14T14:52:42.411Z,31.22
2018-07-14T14:55:11.046Z,30.88
2018-07-14T14:57:39.703Z,30.87
2018-07-14T15:00:08.724Z,27.14
2018-07-14T15:02:37.397Z,28.83
2018-07-14T15:05:06.342Z,28.34
2018-07-14T15:07:35.039Z,27.68
2018-07-14T15:10:04.197Z,28.12
2018-07-14T15:12:32.858Z,25.27
2018-07-14T15:15:01.948Z,26.84
2018-07-14T15:17:31.243Z,26.59
2018-07-14T15:19:59.876Z,24.06
2018-07-14T15:22:29.039Z,26.23
2018-07-14T15:24:58.065Z,26.53
2018-07-14T15:27:29.461Z,27.04
2018-07-14T15:29:58.436Z,24.07
2018-07-14T15:32:27.429Z,25.78
2018-07-14T15:35:03.170Z,25.99
2018-07-14T15:37:32.506Z,26.67
2018-07-14T15:40:01.570Z,23.96
2018-07-14T15:42:30.466Z,25.61
2018-07-14T15:45:00.557Z,25.71
2018-07-14T15:47:29.447Z,25.87
2018-07-14T15:49:58.421Z,25.50
2018-07-14T15:52:27.513Z,26.02
2018-07-14T15:54:56.498Z,26.02
2018-07-14T15:57:25.321Z,26.08
2018-07-14T15:59:54.208Z,26.26
2018-07-14T16:02:23.232Z,26.32
2018-07-14T16:04:52.085Z,26.10
2018-07-14T16:07:20.676Z,25.91
2018-07-14T16:09:49.480Z,25.85
2018-07-14T16:12:18.131Z,26.14
2018-07-14T16:14:46.787Z,26.33
2018-07-14T16:17:15.419Z,26.32
2018-07-14T16:19:44.651Z,26.26
2018-07-14T16:22:13.831Z,22.96
2018-07-14T16:24:42.848Z,24.72
2018-07-14T16:27:11.839Z,25.07
2018-07-14T16:29:41.650Z,25.05
2018-07-14T16:32:10.666Z,25.51
2018-07-14T16:34:39.351Z,22.29
2018-07-14T16:37:08.494Z,24.43
2018-07-14T16:39:37.477Z,25.17
2018-07-14T16:42:06.586Z,25.79
2018-07-14T16:44:35.562Z,23.41
2018-07-14T16:47:04.482Z,25.64
2018-07-14T16:49:33.652Z,26.58
2018-07-14T16:52:02.301Z,22.88
2018-07-14T16:54:30.927Z,25.05
2018-07-14T16:56:59.598Z,25.37
2018-07-14T16:59:28.428Z,25.68
2018-07-14T17:01:57.236Z,25.81
2018-07-14T17:04:26.026Z,25.26
2018-07-14T17:06:55.070Z,25.60
2018-07-14T17:09:24.147Z,25.84
2018-07-14T17:11:52.946Z,25.62
2018-07-14T17:14:21.962Z,25.21
2018-07-14T17:16:51.049Z,25.15
2018-07-14T17:19:20.056Z,20.89
2018-07-14T17:21:49.651Z,23.37
2018-07-14T17:24:18.088Z,24.14
2018-07-14T17:26:46.739Z,23.88
2018-07-14T17:29:15.391Z,20.91
2018-07-14T17:31:44.025Z,23.00
2018-07-14T17:34:12.684Z,23.67
2018-07-14T17:36:41.316Z,23.82
2018-07-14T17:39:10.833Z,24.31
2018-07-14T17:41:42.853Z,24.57
2018-07-14T17:44:11.546Z,24.83
2018-07-14T17:46:40.189Z,24.97
2018-07-14T17:49:09.511Z,25.61
2018-07-14T17:51:41.158Z,26.51
2018-07-14T17:54:10.644Z,27.13
2018-07-14T17:56:39.684Z,27.37
2018-07-14T17:59:08.790Z,28.10
2018-07-14T18:01:37.808Z,28.99
2018-07-14T18:04:06.996Z,29.70
2018-07-14T18:06:36.032Z,30.51
2018-07-14T18:09:04.912Z,31.00
2018-07-14T18:11:34.154Z,31.55
2018-07-14T18:14:03.481Z,32.12
2018-07-14T18:16:32.448Z,32.60
2018-07-14T18:19:01.233Z,33.32
2018-07-14T18:21:30.043Z,31.49
2018-07-14T18:23:59.036Z,33.71
2018-07-14T18:26:27.967Z,34.33
2018-07-14T18:28:57.269Z,35.05
2018-07-14T18:31:26.204Z,35.83
2018-07-14T18:33:54.981Z,35.94
2018-07-14T18:36:23.641Z,36.27
2018-07-14T18:38:52.268Z,36.97
2018-07-14T18:44:08.554Z,37.76
2018-07-14T18:46:37.273Z,37.85
2018-07-14T18:49:05.950Z,37.07
2018-07-14T18:51:34.688Z,37.31
2018-07-14T18:54:03.384Z,38.86
2018-07-14T18:56:32.073Z,39.26
2018-07-14T18:59:02.122Z,39.51
2018-07-14T19:01:30.865Z,39.77
2018-07-14T19:03:59.502Z,39.98
2018-07-14T19:06:28.207Z,40.42
2018-07-14T19:08:56.876Z,39.90
2018-07-14T19:11:25.553Z,41.02
2018-07-14T19:13:54.186Z,41.54
2018-07-14T19:16:22.881Z,41.92
2018-07-14T19:18:51.543Z,41.22
2018-07-14T19:21:20.217Z,41.15
2018-07-14T19:23:56.482Z,42.39
2018-07-14T19:26:25.291Z,42.68
2018-07-14T19:28:53.947Z,43.11
2018-07-14T19:31:22.704Z,43.26
2018-07-14T19:33:51.438Z,43.57
2018-07-14T19:36:20.135Z,43.95
2018-07-14T19:38:48.836Z,42.93
2018-07-14T19:41:17.521Z,42.99
2018-07-14T19:43:46.228Z,44.25
2018-07-14T19:46:15.282Z,43.49
2018-07-14T19:48:43.917Z,44.52
2018-07-14T19:51:12.695Z,44.92
2018-07-14T19:53:41.292Z,45.33
2018-07-14T19:56:10.217Z,46.28
2018-07-14T19:58:38.728Z,45.21
2018-07-14T20:01:07.395Z,46.19
2018-07-14T20:03:38.802Z,46.18
2018-07-14T20:06:07.493Z,46.84
2018-07-14T20:08:36.115Z,47.21
2018-07-14T20:11:04.778Z,47.42
2018-07-14T20:13:33.414Z,47.68
2018-07-14T20:16:02.200Z,48.15
2018-07-14T20:18:30.858Z,48.30
2018-07-14T20:20:59.552Z,48.30
2018-07-14T20:23:28.179Z,48.71
2018-07-14T20:25:59.424Z,49.04
2018-07-14T20:28:30.442Z,49.23
2018-07-14T20:31:04.820Z,49.95
2018-07-14T20:36:31.413Z,49.93
2018-07-14T20:39:05.513Z,50.01
2018-07-14T20:41:40.353Z,49.93
2018-07-14T20:44:12.903Z,50.62
2018-07-14T20:46:46.836Z,50.77
2018-07-14T20:49:20.344Z,50.81
2018-07-14T20:54:51.290Z,50.91
2018-07-14T20:57:23.725Z,50.80
2018-07-14T20:59:52.760Z,50.95
2018-07-14T21:02:21.681Z,51.26
2018-07-14T21:04:50.810Z,51.39
2018-07-14T21:07:20.106Z,51.55
2018-07-14T21:09:49.249Z,52.79
2018-07-14T21:12:21.182Z,53.46
2018-07-14T21:14:51.287Z,53.50
2018-07-14T21:17:20.748Z,53.30
2018-07-14T21:19:57.764Z,53.76
2018-07-14T21:22:28.675Z,53.22
2018-07-14T21:24:57.312Z,53.26
2018-07-14T21:27:33.890Z,54.07
2018-07-14T21:30:02.615Z,54.07
2018-07-14T21:32:31.353Z,54.64
2018-07-14T21:37:49.572Z,54.23
2018-07-14T21:40:18.323Z,54.53
2018-07-14T21:45:40.064Z,54.27
2018-07-14T21:48:08.726Z,54.55
2018-07-14T21:50:37.548Z,54.41
2018-07-14T21:53:06.201Z,54.23
2018-07-14T21:55:34.840Z,54.34
2018-07-14T21:58:03.496Z,54.39
2018-07-14T22:00:32.335Z,55.21
2018-07-14T22:03:01.620Z,54.98
2018-07-14T22:05:31.130Z,55.35
2018-07-14T22:08:00.087Z,55.81
2018-07-14T22:10:29.332Z,55.69
2018-07-14T22:12:58.226Z,54.41
2018-07-14T22:15:27.121Z,55.45
2018-07-14T22:17:56.286Z,55.72
2018-07-14T22:20:25.475Z,55.70
2018-07-14T22:22:54.549Z,54.50
2018-07-14T22:25:23.908Z,55.71
2018-07-14T22:27:53.386Z,56.06
2018-07-14T22:30:25.279Z,56.12
2018-07-14T22:32:54.438Z,54.65
2018-07-14T22:35:23.425Z,56.02
2018-07-14T22:37:52.599Z,56.51
2018-07-14T22:40:21.690Z,56.68
2018-07-14T22:42:50.528Z,56.85
2018-07-14T22:45:19.702Z,57.08
2018-07-14T22:47:49.080Z,57.32
2018-07-14T22:50:17.990Z,55.86
2018-07-14T22:52:46.903Z,57.29
2018-07-14T22:55:15.774Z,55.75
2018-07-14T22:57:45.061Z,57.60
2018-07-14T23:00:13.871Z,57.89
2018-07-14T23:02:43.159Z,56.73
2018-07-14T23:05:12.115Z,58.27
2018-07-14T23:07:41.010Z,57.40
2018-07-14T23:10:10.237Z,58.67
2018-07-14T23:12:39.072Z,59.06
2018-07-14T23:15:08.090Z,59.25
2018-07-14T23:17:36.974Z,59.35
2018-07-14T23:20:06.197Z,57.52
2018-07-14T23:22:35.217Z,59.04
2018-07-14T23:25:04.201Z,59.69
2018-07-14T23:27:33.092Z,57.99
2018-07-14T23:30:01.957Z,59.47
2018-07-14T23:32:31.011Z,59.84
2018-07-14T23:35:00.046Z,60.28
2018-07-14T23:37:29.280Z,60.55
2018-07-14T23:39:58.073Z,59.09
2018-07-14T23:42:27.418Z,60.43
2018-07-14T23:44:56.163Z,59.14
2018-07-14T23:47:25.307Z,60.71
2018-07-14T23:49:54.235Z,61.23
2018-07-14T23:52:23.502Z,61.29
2018-07-14T23:54:52.564Z,61.88
2018-07-14T23:57:21.346Z,61.85
2018-07-14T23:59:49.996Z,61.99
